Riparius, New York
Current Conditions -  °F | °C
As of 10:53 AM on Saturday 22 Nov 2014 (Local Time) from KGFL Reporting Station
Clear Clear  
Wind Chill: 19°   Ceiling: Unl
Heat Index: 29°   Visibility: 10mi
Dew Point: 13°   Wind: 13mph
Humidity: 51%   Direction: 200°SSW
Pressure: 30.27"   Gusts: 20mph
Location:  43.66°N, 73.9°W
Report Text: KGFL 221553Z AUTO 20011G17KT 10SM CLR M02/M11 A3027 RMK AO2 PRESFR SLP261 T10171106
Loading
Personal Weather Stations






























Interactive Weather Map New forecast layout! Learn more

10-Day Weather Forecast

Advertisements
Track Severe Weather on mobile